sensor_id;sensor_type;location;lat;lon;timestamp;P1;durP1;ratioP1;P2;durP2;ratioP2
22223;SDS011;11281;52.194;21.006;2022-12-18T00:03:16;18.23;;;8.40;;
22223;SDS011;11281;52.194;21.006;2022-12-18T00:07:38;16.52;;;8.63;;
22223;SDS011;11281;52.194;21.006;2022-12-18T00:12:00;20.85;;;8.85;;
22223;SDS011;11281;52.194;21.006;2022-12-18T00:16:22;17.13;;;8.73;;
22223;SDS011;11281;52.194;21.006;2022-12-18T00:20:46;23.33;;;9.88;;
22223;SDS011;11281;52.194;21.006;2022-12-18T00:25:07;17.35;;;8.13;;
22223;SDS011;11281;52.194;21.006;2022-12-18T00:29:29;17.73;;;10.23;;
22223;SDS011;11281;52.194;21.006;2022-12-18T00:33:51;14.50;;;9.80;;
22223;SDS011;11281;52.194;21.006;2022-12-18T00:38:16;16.88;;;9.18;;
22223;SDS011;11281;52.194;21.006;2022-12-18T00:42:38;18.95;;;9.35;;
22223;SDS011;11281;52.194;21.006;2022-12-18T00:47:18;21.02;;;8.50;;
22223;SDS011;11281;52.194;21.006;2022-12-18T00:51:40;15.40;;;8.70;;
22223;SDS011;11281;52.194;21.006;2022-12-18T00:56:02;14.93;;;8.55;;
22223;SDS011;11281;52.194;21.006;2022-12-18T01:00:23;13.88;;;9.20;;
22223;SDS011;11281;52.194;21.006;2022-12-18T01:04:45;23.10;;;9.45;;
22223;SDS011;11281;52.194;21.006;2022-12-18T01:09:07;15.40;;;10.18;;
22223;SDS011;11281;52.194;21.006;2022-12-18T01:13:29;19.15;;;9.55;;
22223;SDS011;11281;52.194;21.006;2022-12-18T01:17:52;18.40;;;8.93;;
22223;SDS011;11281;52.194;21.006;2022-12-18T01:22:14;24.65;;;9.82;;
22223;SDS011;11281;52.194;21.006;2022-12-18T01:26:36;16.15;;;8.27;;
22223;SDS011;11281;52.194;21.006;2022-12-18T01:31:08;13.98;;;7.10;;
22223;SDS011;11281;52.194;21.006;2022-12-18T01:35:41;18.73;;;8.85;;
22223;SDS011;11281;52.194;21.006;2022-12-18T01:40:04;20.00;;;9.73;;
22223;SDS011;11281;52.194;21.006;2022-12-18T01:49:18;15.35;;;7.72;;
22223;SDS011;11281;52.194;21.006;2022-12-18T01:53:41;11.00;;;7.85;;
22223;SDS011;11281;52.194;21.006;2022-12-18T01:58:04;17.58;;;7.63;;
22223;SDS011;11281;52.194;21.006;2022-12-18T02:02:27;15.73;;;8.10;;
22223;SDS011;11281;52.194;21.006;2022-12-18T02:06:51;19.33;;;8.90;;
22223;SDS011;11281;52.194;21.006;2022-12-18T02:16:02;17.65;;;7.80;;
22223;SDS011;11281;52.194;21.006;2022-12-18T02:25:55;17.02;;;9.73;;
22223;SDS011;11281;52.194;21.006;2022-12-18T02:30:39;18.37;;;8.90;;
22223;SDS011;11281;52.194;21.006;2022-12-18T02:35:04;20.58;;;8.20;;
22223;SDS011;11281;52.194;21.006;2022-12-18T02:39:36;18.38;;;7.88;;
22223;SDS011;11281;52.194;21.006;2022-12-18T02:44:02;15.82;;;7.95;;
22223;SDS011;11281;52.194;21.006;2022-12-18T02:48:31;10.00;;;6.72;;
22223;SDS011;11281;52.194;21.006;2022-12-18T03:01:57;15.57;;;7.15;;
22223;SDS011;11281;52.194;21.006;2022-12-18T03:06:29;13.23;;;7.10;;
22223;SDS011;11281;52.194;21.006;2022-12-18T03:11:04;12.75;;;6.30;;
22223;SDS011;11281;52.194;21.006;2022-12-18T03:15:30;16.08;;;8.48;;
22223;SDS011;11281;52.194;21.006;2022-12-18T03:19:56;8.82;;;5.90;;
22223;SDS011;11281;52.194;21.006;2022-12-18T03:24:26;14.77;;;6.13;;
22223;SDS011;11281;52.194;21.006;2022-12-18T03:29:00;16.73;;;8.35;;
22223;SDS011;11281;52.194;21.006;2022-12-18T03:33:29;13.95;;;5.63;;
22223;SDS011;11281;52.194;21.006;2022-12-18T03:37:59;15.63;;;7.78;;
22223;SDS011;11281;52.194;21.006;2022-12-18T03:42:25;14.65;;;7.35;;
22223;SDS011;11281;52.194;21.006;2022-12-18T03:51:59;14.07;;;7.97;;
22223;SDS011;11281;52.194;21.006;2022-12-18T04:01:05;14.52;;;7.80;;
22223;SDS011;11281;52.194;21.006;2022-12-18T04:05:29;14.23;;;6.82;;
22223;SDS011;11281;52.194;21.006;2022-12-18T04:09:54;6.28;;;5.57;;
22223;SDS011;11281;52.194;21.006;2022-12-18T04:14:19;13.25;;;6.47;;
22223;SDS011;11281;52.194;21.006;2022-12-18T04:18:41;13.50;;;6.28;;
22223;SDS011;11281;52.194;21.006;2022-12-18T04:23:03;10.32;;;5.63;;
22223;SDS011;11281;52.194;21.006;2022-12-18T04:27:24;10.75;;;7.20;;
22223;SDS011;11281;52.194;21.006;2022-12-18T04:31:46;17.80;;;6.57;;
22223;SDS011;11281;52.194;21.006;2022-12-18T04:36:08;13.90;;;6.65;;
22223;SDS011;11281;52.194;21.006;2022-12-18T04:40:30;9.25;;;6.00;;
22223;SDS011;11281;52.194;21.006;2022-12-18T04:44:51;8.95;;;6.28;;
22223;SDS011;11281;52.194;21.006;2022-12-18T04:49:13;17.13;;;6.90;;
22223;SDS011;11281;52.194;21.006;2022-12-18T04:53:35;9.70;;;6.47;;
22223;SDS011;11281;52.194;21.006;2022-12-18T04:57:57;11.68;;;5.60;;
22223;SDS011;11281;52.194;21.006;2022-12-18T05:02:18;13.32;;;5.95;;
22223;SDS011;11281;52.194;21.006;2022-12-18T05:06:40;17.02;;;7.15;;
22223;SDS011;11281;52.194;21.006;2022-12-18T05:11:06;12.65;;;7.07;;
22223;SDS011;11281;52.194;21.006;2022-12-18T05:15:31;12.40;;;6.63;;
22223;SDS011;11281;52.194;21.006;2022-12-18T05:19:53;14.25;;;6.25;;
22223;SDS011;11281;52.194;21.006;2022-12-18T05:24:15;13.63;;;6.78;;
22223;SDS011;11281;52.194;21.006;2022-12-18T05:28:37;21.48;;;7.18;;
22223;SDS011;11281;52.194;21.006;2022-12-18T05:32:58;11.13;;;7.07;;
22223;SDS011;11281;52.194;21.006;2022-12-18T05:37:20;11.10;;;7.20;;
22223;SDS011;11281;52.194;21.006;2022-12-18T05:41:42;14.07;;;6.75;;
22223;SDS011;11281;52.194;21.006;2022-12-18T05:46:08;17.13;;;7.25;;
22223;SDS011;11281;52.194;21.006;2022-12-18T05:50:35;10.50;;;6.93;;
22223;SDS011;11281;52.194;21.006;2022-12-18T05:54:59;9.80;;;5.97;;
22223;SDS011;11281;52.194;21.006;2022-12-18T05:59:21;10.00;;;6.03;;
22223;SDS011;11281;52.194;21.006;2022-12-18T06:03:43;14.48;;;6.22;;
22223;SDS011;11281;52.194;21.006;2022-12-18T06:08:05;20.05;;;8.48;;
22223;SDS011;11281;52.194;21.006;2022-12-18T06:12:27;23.85;;;7.95;;
22223;SDS011;11281;52.194;21.006;2022-12-18T06:16:50;10.25;;;7.90;;
22223;SDS011;11281;52.194;21.006;2022-12-18T06:21:13;12.13;;;6.22;;
22223;SDS011;11281;52.194;21.006;2022-12-18T06:25:36;13.80;;;7.72;;
22223;SDS011;11281;52.194;21.006;2022-12-18T06:30:00;13.32;;;7.90;;
22223;SDS011;11281;52.194;21.006;2022-12-18T06:34:22;16.02;;;9.10;;
22223;SDS011;11281;52.194;21.006;2022-12-18T06:38:43;15.25;;;8.57;;
22223;SDS011;11281;52.194;21.006;2022-12-18T06:43:05;16.85;;;6.82;;
22223;SDS011;11281;52.194;21.006;2022-12-18T06:47:27;12.27;;;6.55;;
22223;SDS011;11281;52.194;21.006;2022-12-18T06:51:49;20.48;;;7.38;;
22223;SDS011;11281;52.194;21.006;2022-12-18T06:56:11;11.80;;;7.00;;
22223;SDS011;11281;52.194;21.006;2022-12-18T07:00:32;15.15;;;7.03;;
22223;SDS011;11281;52.194;21.006;2022-12-18T07:04:54;11.05;;;6.03;;
22223;SDS011;11281;52.194;21.006;2022-12-18T07:09:16;19.75;;;8.68;;
22223;SDS011;11281;52.194;21.006;2022-12-18T07:13:38;86.50;;;43.38;;
22223;SDS011;11281;52.194;21.006;2022-12-18T07:17:59;23.73;;;14.23;;
22223;SDS011;11281;52.194;21.006;2022-12-18T07:22:21;21.50;;;11.45;;
22223;SDS011;11281;52.194;21.006;2022-12-18T07:26:45;37.08;;;14.02;;
22223;SDS011;11281;52.194;21.006;2022-12-18T07:31:09;22.35;;;11.23;;
22223;SDS011;11281;52.194;21.006;2022-12-18T07:35:33;24.27;;;11.05;;
22223;SDS011;11281;52.194;21.006;2022-12-18T07:39:55;18.20;;;8.65;;
22223;SDS011;11281;52.194;21.006;2022-12-18T07:44:16;24.83;;;11.20;;
22223;SDS011;11281;52.194;21.006;2022-12-18T07:48:38;16.13;;;9.57;;
22223;SDS011;11281;52.194;21.006;2022-12-18T07:53:01;23.85;;;10.05;;
22223;SDS011;11281;52.194;21.006;2022-12-18T07:57:25;16.40;;;11.15;;
22223;SDS011;11281;52.194;21.006;2022-12-18T08:01:46;28.38;;;9.05;;
22223;SDS011;11281;52.194;21.006;2022-12-18T08:06:09;22.10;;;8.75;;
22223;SDS011;11281;52.194;21.006;2022-12-18T08:10:31;24.15;;;9.40;;
22223;SDS011;11281;52.194;21.006;2022-12-18T08:14:52;20.17;;;12.13;;
22223;SDS011;11281;52.194;21.006;2022-12-18T08:19:14;25.15;;;10.98;;
22223;SDS011;11281;52.194;21.006;2022-12-18T08:23:36;24.38;;;9.65;;
22223;SDS011;11281;52.194;21.006;2022-12-18T08:27:58;22.17;;;10.30;;
22223;SDS011;11281;52.194;21.006;2022-12-18T08:32:20;21.98;;;10.77;;
22223;SDS011;11281;52.194;21.006;2022-12-18T08:36:42;18.52;;;9.52;;
22223;SDS011;11281;52.194;21.006;2022-12-18T08:41:08;30.35;;;12.30;;
22223;SDS011;11281;52.194;21.006;2022-12-18T08:45:32;31.00;;;12.68;;
22223;SDS011;11281;52.194;21.006;2022-12-18T08:49:55;29.80;;;13.43;;
22223;SDS011;11281;52.194;21.006;2022-12-18T08:54:17;25.13;;;13.15;;
22223;SDS011;11281;52.194;21.006;2022-12-18T08:58:39;27.05;;;11.38;;
22223;SDS011;11281;52.194;21.006;2022-12-18T09:03:02;33.55;;;13.43;;
22223;SDS011;11281;52.194;21.006;2022-12-18T09:07:24;36.97;;;15.07;;
22223;SDS011;11281;52.194;21.006;2022-12-18T09:11:45;30.90;;;12.75;;
22223;SDS011;11281;52.194;21.006;2022-12-18T09:16:07;51.22;;;27.67;;
22223;SDS011;11281;52.194;21.006;2022-12-18T09:20:29;39.38;;;17.40;;
22223;SDS011;11281;52.194;21.006;2022-12-18T09:24:51;37.60;;;14.40;;
22223;SDS011;11281;52.194;21.006;2022-12-18T09:29:13;45.05;;;20.33;;
22223;SDS011;11281;52.194;21.006;2022-12-18T09:33:36;24.92;;;12.63;;
22223;SDS011;11281;52.194;21.006;2022-12-18T09:37:58;40.90;;;17.02;;
22223;SDS011;11281;52.194;21.006;2022-12-18T09:42:20;62.75;;;22.77;;
22223;SDS011;11281;52.194;21.006;2022-12-18T09:46:44;87.35;;;31.35;;
22223;SDS011;11281;52.194;21.006;2022-12-18T09:51:19;50.45;;;19.33;;
22223;SDS011;11281;52.194;21.006;2022-12-18T09:56:06;51.95;;;20.98;;
22223;SDS011;11281;52.194;21.006;2022-12-18T10:00:37;58.67;;;21.38;;
22223;SDS011;11281;52.194;21.006;2022-12-18T10:05:04;66.00;;;24.05;;
22223;SDS011;11281;52.194;21.006;2022-12-18T10:28:45;37.92;;;16.27;;
22223;SDS011;11281;52.194;21.006;2022-12-18T10:33:10;36.72;;;15.75;;
22223;SDS011;11281;52.194;21.006;2022-12-18T10:37:38;40.38;;;17.10;;
22223;SDS011;11281;52.194;21.006;2022-12-18T10:42:28;41.15;;;17.77;;
22223;SDS011;11281;52.194;21.006;2022-12-18T10:46:50;57.85;;;21.38;;
22223;SDS011;11281;52.194;21.006;2022-12-18T10:51:28;60.67;;;19.95;;
22223;SDS011;11281;52.194;21.006;2022-12-18T10:55:54;43.47;;;18.65;;
22223;SDS011;11281;52.194;21.006;2022-12-18T11:00:26;44.90;;;18.30;;
22223;SDS011;11281;52.194;21.006;2022-12-18T11:04:51;34.75;;;15.95;;
22223;SDS011;11281;52.194;21.006;2022-12-18T11:09:20;59.78;;;22.17;;
22223;SDS011;11281;52.194;21.006;2022-12-18T11:13:50;34.25;;;13.40;;
22223;SDS011;11281;52.194;21.006;2022-12-18T11:18:30;37.45;;;15.93;;
22223;SDS011;11281;52.194;21.006;2022-12-18T11:22:58;33.97;;;15.95;;
22223;SDS011;11281;52.194;21.006;2022-12-18T11:27:26;42.85;;;16.80;;
22223;SDS011;11281;52.194;21.006;2022-12-18T11:31:49;43.30;;;16.33;;
22223;SDS011;11281;52.194;21.006;2022-12-18T11:36:11;44.05;;;16.95;;
22223;SDS011;11281;52.194;21.006;2022-12-18T11:40:35;34.50;;;16.02;;
22223;SDS011;11281;52.194;21.006;2022-12-18T11:45:00;34.25;;;15.10;;
22223;SDS011;11281;52.194;21.006;2022-12-18T11:49:44;38.05;;;16.27;;
22223;SDS011;11281;52.194;21.006;2022-12-18T11:54:14;35.67;;;16.02;;
22223;SDS011;11281;52.194;21.006;2022-12-18T12:17:56;31.35;;;13.38;;
22223;SDS011;11281;52.194;21.006;2022-12-18T12:22:54;33.83;;;15.18;;
22223;SDS011;11281;52.194;21.006;2022-12-18T12:41:55;37.83;;;14.80;;
22223;SDS011;11281;52.194;21.006;2022-12-18T12:46:37;32.40;;;14.70;;
22223;SDS011;11281;52.194;21.006;2022-12-18T12:51:03;27.10;;;14.38;;
22223;SDS011;11281;52.194;21.006;2022-12-18T12:55:55;39.08;;;13.82;;
22223;SDS011;11281;52.194;21.006;2022-12-18T13:00:18;35.22;;;15.57;;
22223;SDS011;11281;52.194;21.006;2022-12-18T13:04:47;33.78;;;13.95;;
22223;SDS011;11281;52.194;21.006;2022-12-18T13:09:24;41.55;;;14.52;;
22223;SDS011;11281;52.194;21.006;2022-12-18T13:22:48;36.08;;;13.23;;
22223;SDS011;11281;52.194;21.006;2022-12-18T13:32:22;31.23;;;14.55;;
22223;SDS011;11281;52.194;21.006;2022-12-18T13:36:46;26.45;;;13.80;;
22223;SDS011;11281;52.194;21.006;2022-12-18T13:45:43;38.88;;;15.27;;
22223;SDS011;11281;52.194;21.006;2022-12-18T13:50:22;36.88;;;14.70;;
22223;SDS011;11281;52.194;21.006;2022-12-18T13:54:50;34.90;;;13.80;;
22223;SDS011;11281;52.194;21.006;2022-12-18T13:59:19;37.28;;;14.77;;
22223;SDS011;11281;52.194;21.006;2022-12-18T14:03:45;45.50;;;15.75;;
22223;SDS011;11281;52.194;21.006;2022-12-18T14:08:11;32.55;;;13.77;;
22223;SDS011;11281;52.194;21.006;2022-12-18T14:12:35;26.58;;;12.38;;
22223;SDS011;11281;52.194;21.006;2022-12-18T14:17:15;38.33;;;13.98;;
22223;SDS011;11281;52.194;21.006;2022-12-18T14:21:38;35.22;;;13.10;;
22223;SDS011;11281;52.194;21.006;2022-12-18T14:26:03;24.90;;;12.23;;
22223;SDS011;11281;52.194;21.006;2022-12-18T14:30:42;31.55;;;12.43;;
22223;SDS011;11281;52.194;21.006;2022-12-18T14:35:12;31.70;;;13.60;;
22223;SDS011;11281;52.194;21.006;2022-12-18T14:39:34;29.35;;;12.20;;
22223;SDS011;11281;52.194;21.006;2022-12-18T14:43:56;42.17;;;14.85;;
22223;SDS011;11281;52.194;21.006;2022-12-18T14:48:41;36.17;;;15.13;;
22223;SDS011;11281;52.194;21.006;2022-12-18T14:53:04;42.95;;;16.60;;
22223;SDS011;11281;52.194;21.006;2022-12-18T14:57:39;45.08;;;18.83;;
22223;SDS011;11281;52.194;21.006;2022-12-18T15:06:39;36.05;;;19.08;;
22223;SDS011;11281;52.194;21.006;2022-12-18T15:11:02;38.35;;;16.65;;
22223;SDS011;11281;52.194;21.006;2022-12-18T15:20:03;39.38;;;16.10;;
22223;SDS011;11281;52.194;21.006;2022-12-18T15:24:31;47.30;;;16.02;;
22223;SDS011;11281;52.194;21.006;2022-12-18T15:28:54;41.35;;;16.35;;
22223;SDS011;11281;52.194;21.006;2022-12-18T15:33:23;38.17;;;16.80;;
22223;SDS011;11281;52.194;21.006;2022-12-18T15:37:48;37.83;;;15.82;;
22223;SDS011;11281;52.194;21.006;2022-12-18T15:42:11;47.10;;;17.52;;
22223;SDS011;11281;52.194;21.006;2022-12-18T15:46:51;40.30;;;16.55;;
22223;SDS011;11281;52.194;21.006;2022-12-18T15:55:47;35.05;;;15.07;;
22223;SDS011;11281;52.194;21.006;2022-12-18T16:00:27;38.28;;;15.23;;
22223;SDS011;11281;52.194;21.006;2022-12-18T16:04:49;38.50;;;16.75;;
22223;SDS011;11281;52.194;21.006;2022-12-18T16:09:13;41.65;;;17.90;;
22223;SDS011;11281;52.194;21.006;2022-12-18T16:13:35;40.78;;;14.45;;
22223;SDS011;11281;52.194;21.006;2022-12-18T16:17:56;41.33;;;15.25;;
22223;SDS011;11281;52.194;21.006;2022-12-18T16:22:20;37.78;;;14.77;;
22223;SDS011;11281;52.194;21.006;2022-12-18T16:26:44;34.15;;;15.73;;
22223;SDS011;11281;52.194;21.006;2022-12-18T16:31:06;45.95;;;16.90;;
22223;SDS011;11281;52.194;21.006;2022-12-18T16:35:29;40.85;;;14.00;;
22223;SDS011;11281;52.194;21.006;2022-12-18T16:39:50;41.15;;;15.40;;
22223;SDS011;11281;52.194;21.006;2022-12-18T16:44:12;33.85;;;13.95;;
22223;SDS011;11281;52.194;21.006;2022-12-18T16:48:35;46.17;;;17.50;;
22223;SDS011;11281;52.194;21.006;2022-12-18T16:52:56;42.15;;;16.05;;
22223;SDS011;11281;52.194;21.006;2022-12-18T16:57:19;38.10;;;14.43;;
22223;SDS011;11281;52.194;21.006;2022-12-18T17:01:41;39.95;;;14.48;;
22223;SDS011;11281;52.194;21.006;2022-12-18T17:06:03;40.47;;;14.63;;
22223;SDS011;11281;52.194;21.006;2022-12-18T17:10:26;29.83;;;14.38;;
22223;SDS011;11281;52.194;21.006;2022-12-18T17:14:48;39.28;;;16.40;;
22223;SDS011;11281;52.194;21.006;2022-12-18T17:19:10;46.05;;;16.17;;
22223;SDS011;11281;52.194;21.006;2022-12-18T17:23:32;38.03;;;14.70;;
22223;SDS011;11281;52.194;21.006;2022-12-18T17:27:53;32.42;;;12.68;;
22223;SDS011;11281;52.194;21.006;2022-12-18T17:32:15;35.33;;;13.93;;
22223;SDS011;11281;52.194;21.006;2022-12-18T17:36:38;33.60;;;13.57;;
22223;SDS011;11281;52.194;21.006;2022-12-18T17:41:05;39.22;;;15.73;;
22223;SDS011;11281;52.194;21.006;2022-12-18T17:45:28;36.42;;;14.68;;
22223;SDS011;11281;52.194;21.006;2022-12-18T17:49:50;44.90;;;16.25;;
22223;SDS011;11281;52.194;21.006;2022-12-18T17:54:12;31.30;;;15.38;;
22223;SDS011;11281;52.194;21.006;2022-12-18T17:58:38;35.45;;;15.30;;
22223;SDS011;11281;52.194;21.006;2022-12-18T18:03:00;34.28;;;15.10;;
22223;SDS011;11281;52.194;21.006;2022-12-18T18:07:22;33.90;;;15.85;;
22223;SDS011;11281;52.194;21.006;2022-12-18T18:11:44;35.22;;;15.73;;
22223;SDS011;11281;52.194;21.006;2022-12-18T18:16:24;33.88;;;14.43;;
22223;SDS011;11281;52.194;21.006;2022-12-18T18:20:47;36.45;;;16.30;;
22223;SDS011;11281;52.194;21.006;2022-12-18T18:25:09;31.38;;;14.05;;
22223;SDS011;11281;52.194;21.006;2022-12-18T18:29:31;38.00;;;15.30;;
22223;SDS011;11281;52.194;21.006;2022-12-18T18:33:53;29.33;;;14.38;;
22223;SDS011;11281;52.194;21.006;2022-12-18T18:38:15;26.00;;;13.82;;
22223;SDS011;11281;52.194;21.006;2022-12-18T18:42:36;37.22;;;15.05;;
22223;SDS011;11281;52.194;21.006;2022-12-18T18:46:58;35.42;;;13.77;;
22223;SDS011;11281;52.194;21.006;2022-12-18T18:51:20;32.70;;;12.52;;
22223;SDS011;11281;52.194;21.006;2022-12-18T18:55:42;32.30;;;13.57;;
22223;SDS011;11281;52.194;21.006;2022-12-18T19:00:04;34.60;;;15.23;;
22223;SDS011;11281;52.194;21.006;2022-12-18T19:04:27;44.85;;;14.90;;
22223;SDS011;11281;52.194;21.006;2022-12-18T19:08:49;33.58;;;14.95;;
22223;SDS011;11281;52.194;21.006;2022-12-18T19:13:13;21.77;;;11.98;;
22223;SDS011;11281;52.194;21.006;2022-12-18T19:17:40;32.83;;;14.90;;
22223;SDS011;11281;52.194;21.006;2022-12-18T19:22:02;25.15;;;13.15;;
22223;SDS011;11281;52.194;21.006;2022-12-18T19:26:26;23.63;;;12.88;;
22223;SDS011;11281;52.194;21.006;2022-12-18T19:30:48;43.35;;;15.63;;
22223;SDS011;11281;52.194;21.006;2022-12-18T19:35:15;26.97;;;12.77;;
22223;SDS011;11281;52.194;21.006;2022-12-18T19:39:36;36.80;;;14.20;;
22223;SDS011;11281;52.194;21.006;2022-12-18T19:43:58;29.00;;;13.68;;
22223;SDS011;11281;52.194;21.006;2022-12-18T19:48:20;33.22;;;13.55;;
22223;SDS011;11281;52.194;21.006;2022-12-18T19:52:42;45.88;;;18.58;;
22223;SDS011;11281;52.194;21.006;2022-12-18T19:57:04;33.00;;;14.50;;
22223;SDS011;11281;52.194;21.006;2022-12-18T20:01:27;29.30;;;15.52;;
22223;SDS011;11281;52.194;21.006;2022-12-18T20:05:50;22.75;;;12.10;;
22223;SDS011;11281;52.194;21.006;2022-12-18T20:10:12;27.15;;;14.63;;
22223;SDS011;11281;52.194;21.006;2022-12-18T20:14:34;30.08;;;12.48;;
22223;SDS011;11281;52.194;21.006;2022-12-18T20:18:56;25.77;;;14.18;;
22223;SDS011;11281;52.194;21.006;2022-12-18T20:23:18;40.50;;;16.52;;
22223;SDS011;11281;52.194;21.006;2022-12-18T20:27:39;30.20;;;15.48;;
22223;SDS011;11281;52.194;21.006;2022-12-18T20:32:01;32.97;;;14.60;;
22223;SDS011;11281;52.194;21.006;2022-12-18T20:36:23;40.13;;;17.10;;
22223;SDS011;11281;52.194;21.006;2022-12-18T20:40:45;32.00;;;16.08;;
22223;SDS011;11281;52.194;21.006;2022-12-18T20:45:07;30.33;;;12.50;;
22223;SDS011;11281;52.194;21.006;2022-12-18T20:49:29;35.60;;;13.70;;
22223;SDS011;11281;52.194;21.006;2022-12-18T20:53:51;35.50;;;14.02;;
22223;SDS011;11281;52.194;21.006;2022-12-18T20:58:15;36.13;;;14.02;;
22223;SDS011;11281;52.194;21.006;2022-12-18T21:02:36;33.47;;;12.95;;
22223;SDS011;11281;52.194;21.006;2022-12-18T21:06:58;24.70;;;10.68;;
22223;SDS011;11281;52.194;21.006;2022-12-18T21:16:00;19.92;;;11.15;;
22223;SDS011;11281;52.194;21.006;2022-12-18T21:20:22;28.40;;;12.50;;
22223;SDS011;11281;52.194;21.006;2022-12-18T21:24:43;39.10;;;12.00;;
22223;SDS011;11281;52.194;21.006;2022-12-18T21:29:06;33.10;;;15.65;;
22223;SDS011;11281;52.194;21.006;2022-12-18T21:33:32;30.27;;;11.77;;
22223;SDS011;11281;52.194;21.006;2022-12-18T21:37:53;24.92;;;10.45;;
22223;SDS011;11281;52.194;21.006;2022-12-18T21:42:15;26.83;;;10.13;;
22223;SDS011;11281;52.194;21.006;2022-12-18T21:46:55;16.95;;;11.10;;
22223;SDS011;11281;52.194;21.006;2022-12-18T21:51:18;27.58;;;11.73;;
22223;SDS011;11281;52.194;21.006;2022-12-18T21:55:39;19.92;;;10.88;;
22223;SDS011;11281;52.194;21.006;2022-12-18T22:00:01;19.77;;;8.95;;
22223;SDS011;11281;52.194;21.006;2022-12-18T22:04:24;21.23;;;9.77;;
22223;SDS011;11281;52.194;21.006;2022-12-18T22:08:47;26.20;;;10.48;;
22223;SDS011;11281;52.194;21.006;2022-12-18T22:13:09;24.38;;;11.38;;
22223;SDS011;11281;52.194;21.006;2022-12-18T22:17:31;20.05;;;10.63;;
22223;SDS011;11281;52.194;21.006;2022-12-18T22:21:53;25.77;;;10.45;;
22223;SDS011;11281;52.194;21.006;2022-12-18T22:26:15;26.65;;;10.63;;
22223;SDS011;11281;52.194;21.006;2022-12-18T22:30:36;21.92;;;11.07;;
22223;SDS011;11281;52.194;21.006;2022-12-18T22:34:59;25.00;;;11.63;;
22223;SDS011;11281;52.194;21.006;2022-12-18T22:39:25;28.30;;;11.30;;
22223;SDS011;11281;52.194;21.006;2022-12-18T22:43:49;22.60;;;10.38;;
22223;SDS011;11281;52.194;21.006;2022-12-18T22:48:11;17.77;;;9.07;;
22223;SDS011;11281;52.194;21.006;2022-12-18T22:52:33;32.47;;;12.00;;
22223;SDS011;11281;52.194;21.006;2022-12-18T22:56:54;20.17;;;8.75;;
22223;SDS011;11281;52.194;21.006;2022-12-18T23:01:18;28.85;;;9.45;;
22223;SDS011;11281;52.194;21.006;2022-12-18T23:05:45;29.35;;;11.45;;
22223;SDS011;11281;52.194;21.006;2022-12-18T23:10:07;20.67;;;10.43;;
22223;SDS011;11281;52.194;21.006;2022-12-18T23:14:29;25.63;;;10.18;;
22223;SDS011;11281;52.194;21.006;2022-12-18T23:18:52;23.70;;;9.63;;
22223;SDS011;11281;52.194;21.006;2022-12-18T23:23:15;24.60;;;11.07;;
22223;SDS011;11281;52.194;21.006;2022-12-18T23:27:37;23.55;;;10.40;;
22223;SDS011;11281;52.194;21.006;2022-12-18T23:31:59;19.85;;;10.25;;
22223;SDS011;11281;52.194;21.006;2022-12-18T23:36:20;28.92;;;10.35;;
22223;SDS011;11281;52.194;21.006;2022-12-18T23:40:42;21.77;;;9.60;;
22223;SDS011;11281;52.194;21.006;2022-12-18T23:45:04;24.17;;;10.10;;
22223;SDS011;11281;52.194;21.006;2022-12-18T23:49:27;15.93;;;8.45;;
22223;SDS011;11281;52.194;21.006;2022-12-18T23:53:49;18.35;;;10.02;;
22223;SDS011;11281;52.194;21.006;2022-12-18T23:58:16;28.23;;;11.52;;
